sensor_id;sensor_type;location;lat;lon;timestamp;temperature;humidity
6964;DHT22;3522;50.856;7.278;2022-09-09T00:02:03;16.50;99.90
6964;DHT22;3522;50.856;7.278;2022-09-09T00:04:31;16.50;99.90
6964;DHT22;3522;50.856;7.278;2022-09-09T00:07:00;16.40;99.90
6964;DHT22;3522;50.856;7.278;2022-09-09T00:09:29;16.40;99.90
6964;DHT22;3522;50.856;7.278;2022-09-09T00:11:58;16.40;99.90
6964;DHT22;3522;50.856;7.278;2022-09-09T00:14:31;16.40;99.90
6964;DHT22;3522;50.856;7.278;2022-09-09T00:17:01;16.30;99.90
6964;DHT22;3522;50.856;7.278;2022-09-09T00:19:29;16.20;99.90
6964;DHT22;3522;50.856;7.278;2022-09-09T00:22:05;16.20;99.90
6964;DHT22;3522;50.856;7.278;2022-09-09T00:24:35;16.10;99.90
6964;DHT22;3522;50.856;7.278;2022-09-09T00:27:08;16.10;99.90
6964;DHT22;3522;50.856;7.278;2022-09-09T00:29:40;16.10;99.90
6964;DHT22;3522;50.856;7.278;2022-09-09T00:32:11;16.00;99.90
6964;DHT22;3522;50.856;7.278;2022-09-09T00:34:39;16.00;99.90
6964;DHT22;3522;50.856;7.278;2022-09-09T00:37:08;16.00;99.90
6964;DHT22;3522;50.856;7.278;2022-09-09T00:39:36;15.90;99.90
6964;DHT22;3522;50.856;7.278;2022-09-09T00:42:09;15.90;99.90
6964;DHT22;3522;50.856;7.278;2022-09-09T00:44:43;15.90;99.90
6964;DHT22;3522;50.856;7.278;2022-09-09T00:47:12;16.00;99.90
6964;DHT22;3522;50.856;7.278;2022-09-09T00:49:46;16.00;99.90
6964;DHT22;3522;50.856;7.278;2022-09-09T00:52:22;16.00;99.90
6964;DHT22;3522;50.856;7.278;2022-09-09T00:54:51;16.00;99.90
6964;DHT22;3522;50.856;7.278;2022-09-09T00:57:25;16.00;99.90
6964;DHT22;3522;50.856;7.278;2022-09-09T00:59:55;15.90;99.90
6964;DHT22;3522;50.856;7.278;2022-09-09T01:02:27;15.90;99.90
6964;DHT22;3522;50.856;7.278;2022-09-09T01:04:56;15.90;99.90
6964;DHT22;3522;50.856;7.278;2022-09-09T01:07:27;15.90;99.90
6964;DHT22;3522;50.856;7.278;2022-09-09T01:09:55;15.90;99.90
6964;DHT22;3522;50.856;7.278;2022-09-09T01:12:27;15.90;99.90
6964;DHT22;3522;50.856;7.278;2022-09-09T01:14:58;15.90;99.90
6964;DHT22;3522;50.856;7.278;2022-09-09T01:17:28;16.00;99.90
6964;DHT22;3522;50.856;7.278;2022-09-09T01:20:02;16.00;99.90
6964;DHT22;3522;50.856;7.278;2022-09-09T01:22:32;16.00;99.90
6964;DHT22;3522;50.856;7.278;2022-09-09T01:25:13;16.00;99.90
6964;DHT22;3522;50.856;7.278;2022-09-09T01:27:44;16.00;99.90
6964;DHT22;3522;50.856;7.278;2022-09-09T01:30:13;16.10;99.90
6964;DHT22;3522;50.856;7.278;2022-09-09T01:32:41;16.10;99.90
6964;DHT22;3522;50.856;7.278;2022-09-09T01:35:09;16.10;99.90
6964;DHT22;3522;50.856;7.278;2022-09-09T01:37:37;16.10;99.90
6964;DHT22;3522;50.856;7.278;2022-09-09T01:40:04;16.10;99.90
6964;DHT22;3522;50.856;7.278;2022-09-09T01:42:31;16.10;99.90
6964;DHT22;3522;50.856;7.278;2022-09-09T01:45:00;16.10;99.90
6964;DHT22;3522;50.856;7.278;2022-09-09T01:47:26;16.20;99.90
6964;DHT22;3522;50.856;7.278;2022-09-09T01:49:53;16.20;99.90
6964;DHT22;3522;50.856;7.278;2022-09-09T01:52:20;16.10;99.90
6964;DHT22;3522;50.856;7.278;2022-09-09T01:54:47;16.10;99.90
6964;DHT22;3522;50.856;7.278;2022-09-09T01:57:15;16.20;99.90
6964;DHT22;3522;50.856;7.278;2022-09-09T01:59:47;16.20;99.90
6964;DHT22;3522;50.856;7.278;2022-09-09T02:02:17;16.20;99.90
6964;DHT22;3522;50.856;7.278;2022-09-09T02:04:45;16.20;99.90
6964;DHT22;3522;50.856;7.278;2022-09-09T02:07:27;16.30;99.90
6964;DHT22;3522;50.856;7.278;2022-09-09T02:09:57;16.30;99.90
6964;DHT22;3522;50.856;7.278;2022-09-09T02:12:25;16.30;99.90
6964;DHT22;3522;50.856;7.278;2022-09-09T02:14:55;16.30;99.90
6964;DHT22;3522;50.856;7.278;2022-09-09T02:17:24;16.20;99.90
6964;DHT22;3522;50.856;7.278;2022-09-09T02:19:53;16.20;99.90
6964;DHT22;3522;50.856;7.278;2022-09-09T02:22:23;16.20;99.90
6964;DHT22;3522;50.856;7.278;2022-09-09T02:24:50;16.20;99.90
6964;DHT22;3522;50.856;7.278;2022-09-09T02:27:20;16.20;99.90
6964;DHT22;3522;50.856;7.278;2022-09-09T02:29:47;16.20;99.90
6964;DHT22;3522;50.856;7.278;2022-09-09T02:32:15;16.20;99.90
6964;DHT22;3522;50.856;7.278;2022-09-09T02:34:45;16.20;99.90
6964;DHT22;3522;50.856;7.278;2022-09-09T02:37:13;16.20;99.90
6964;DHT22;3522;50.856;7.278;2022-09-09T02:39:41;16.20;99.90
6964;DHT22;3522;50.856;7.278;2022-09-09T02:42:09;16.10;99.90
6964;DHT22;3522;50.856;7.278;2022-09-09T02:44:36;16.10;99.90
6964;DHT22;3522;50.856;7.278;2022-09-09T02:47:09;16.00;99.90
6964;DHT22;3522;50.856;7.278;2022-09-09T02:49:41;16.10;99.90
6964;DHT22;3522;50.856;7.278;2022-09-09T02:52:13;16.10;99.90
6964;DHT22;3522;50.856;7.278;2022-09-09T02:54:41;16.10;99.90
6964;DHT22;3522;50.856;7.278;2022-09-09T02:57:10;16.10;99.90
6964;DHT22;3522;50.856;7.278;2022-09-09T02:59:37;16.10;99.90
6964;DHT22;3522;50.856;7.278;2022-09-09T03:02:04;16.10;99.90
6964;DHT22;3522;50.856;7.278;2022-09-09T03:04:30;16.10;99.90
6964;DHT22;3522;50.856;7.278;2022-09-09T03:06:57;16.10;99.90
6964;DHT22;3522;50.856;7.278;2022-09-09T03:09:25;16.10;99.90
6964;DHT22;3522;50.856;7.278;2022-09-09T03:11:52;16.10;99.90
6964;DHT22;3522;50.856;7.278;2022-09-09T03:14:20;16.10;99.90
6964;DHT22;3522;50.856;7.278;2022-09-09T03:16:49;16.10;99.90
6964;DHT22;3522;50.856;7.278;2022-09-09T03:19:16;16.10;99.90
6964;DHT22;3522;50.856;7.278;2022-09-09T03:21:43;16.10;99.90
6964;DHT22;3522;50.856;7.278;2022-09-09T03:24:10;16.20;99.90
6964;DHT22;3522;50.856;7.278;2022-09-09T03:26:38;16.10;99.90
6964;DHT22;3522;50.856;7.278;2022-09-09T03:29:06;16.10;99.90
6964;DHT22;3522;50.856;7.278;2022-09-09T03:31:32;16.10;99.90
6964;DHT22;3522;50.856;7.278;2022-09-09T03:33:59;16.20;99.90
6964;DHT22;3522;50.856;7.278;2022-09-09T03:36:25;16.10;99.90
6964;DHT22;3522;50.856;7.278;2022-09-09T03:38:53;16.10;99.90
6964;DHT22;3522;50.856;7.278;2022-09-09T03:41:20;16.10;99.90
6964;DHT22;3522;50.856;7.278;2022-09-09T03:43:50;16.10;99.90
6964;DHT22;3522;50.856;7.278;2022-09-09T03:46:17;16.10;99.90
6964;DHT22;3522;50.856;7.278;2022-09-09T03:48:43;16.20;99.90
6964;DHT22;3522;50.856;7.278;2022-09-09T03:51:10;16.10;99.90
6964;DHT22;3522;50.856;7.278;2022-09-09T03:53:36;16.20;99.90
6964;DHT22;3522;50.856;7.278;2022-09-09T03:56:04;16.20;99.90
6964;DHT22;3522;50.856;7.278;2022-09-09T03:58:32;16.10;99.90
6964;DHT22;3522;50.856;7.278;2022-09-09T04:01:01;16.20;99.90
6964;DHT22;3522;50.856;7.278;2022-09-09T04:03:28;16.20;99.90
6964;DHT22;3522;50.856;7.278;2022-09-09T04:05:56;16.10;99.90
6964;DHT22;3522;50.856;7.278;2022-09-09T04:08:23;16.10;99.90
6964;DHT22;3522;50.856;7.278;2022-09-09T04:10:50;16.10;99.90
6964;DHT22;3522;50.856;7.278;2022-09-09T04:13:17;16.10;99.90
6964;DHT22;3522;50.856;7.278;2022-09-09T04:15:49;16.10;99.90
6964;DHT22;3522;50.856;7.278;2022-09-09T04:18:18;16.10;99.90
6964;DHT22;3522;50.856;7.278;2022-09-09T04:20:45;16.10;99.90
6964;DHT22;3522;50.856;7.278;2022-09-09T04:23:12;16.10;99.90
6964;DHT22;3522;50.856;7.278;2022-09-09T04:25:42;16.00;99.90
6964;DHT22;3522;50.856;7.278;2022-09-09T04:28:10;16.00;99.90
6964;DHT22;3522;50.856;7.278;2022-09-09T04:30:36;16.00;99.90
6964;DHT22;3522;50.856;7.278;2022-09-09T04:33:05;16.00;99.90
6964;DHT22;3522;50.856;7.278;2022-09-09T04:35:33;16.00;99.90
6964;DHT22;3522;50.856;7.278;2022-09-09T04:38:00;16.00;99.90
6964;DHT22;3522;50.856;7.278;2022-09-09T04:40:27;16.00;99.90
6964;DHT22;3522;50.856;7.278;2022-09-09T04:42:54;15.90;99.90
6964;DHT22;3522;50.856;7.278;2022-09-09T04:45:21;15.90;99.90
6964;DHT22;3522;50.856;7.278;2022-09-09T04:47:47;15.90;99.90
6964;DHT22;3522;50.856;7.278;2022-09-09T04:50:14;15.90;99.90
6964;DHT22;3522;50.856;7.278;2022-09-09T04:52:42;15.90;99.90
6964;DHT22;3522;50.856;7.278;2022-09-09T04:55:09;16.00;99.90
6964;DHT22;3522;50.856;7.278;2022-09-09T04:57:35;16.00;99.90
6964;DHT22;3522;50.856;7.278;2022-09-09T05:00:02;16.00;99.90
6964;DHT22;3522;50.856;7.278;2022-09-09T05:02:29;15.90;99.90
6964;DHT22;3522;50.856;7.278;2022-09-09T05:04:57;16.00;99.90
6964;DHT22;3522;50.856;7.278;2022-09-09T05:07:24;16.00;99.90
6964;DHT22;3522;50.856;7.278;2022-09-09T05:09:52;16.00;99.90
6964;DHT22;3522;50.856;7.278;2022-09-09T05:12:19;15.90;99.90
6964;DHT22;3522;50.856;7.278;2022-09-09T05:14:46;16.00;99.90
6964;DHT22;3522;50.856;7.278;2022-09-09T05:17:12;15.90;99.90
6964;DHT22;3522;50.856;7.278;2022-09-09T05:19:40;15.90;99.90
6964;DHT22;3522;50.856;7.278;2022-09-09T05:22:07;15.90;99.90
6964;DHT22;3522;50.856;7.278;2022-09-09T05:24:33;15.90;99.90
6964;DHT22;3522;50.856;7.278;2022-09-09T05:27:01;15.90;99.90
6964;DHT22;3522;50.856;7.278;2022-09-09T05:29:28;15.90;99.90
6964;DHT22;3522;50.856;7.278;2022-09-09T05:31:54;15.90;99.90
6964;DHT22;3522;50.856;7.278;2022-09-09T05:34:21;15.90;99.90
6964;DHT22;3522;50.856;7.278;2022-09-09T05:36:47;15.90;99.90
6964;DHT22;3522;50.856;7.278;2022-09-09T05:39:14;16.00;99.90
6964;DHT22;3522;50.856;7.278;2022-09-09T05:41:41;16.00;99.90
6964;DHT22;3522;50.856;7.278;2022-09-09T05:44:09;16.00;99.90
6964;DHT22;3522;50.856;7.278;2022-09-09T05:46:35;16.00;99.90
6964;DHT22;3522;50.856;7.278;2022-09-09T05:49:02;16.00;99.90
6964;DHT22;3522;50.856;7.278;2022-09-09T05:51:30;16.00;99.90
6964;DHT22;3522;50.856;7.278;2022-09-09T05:53:57;16.00;99.90
6964;DHT22;3522;50.856;7.278;2022-09-09T05:56:25;16.00;99.90
6964;DHT22;3522;50.856;7.278;2022-09-09T05:58:52;16.10;99.90
6964;DHT22;3522;50.856;7.278;2022-09-09T06:01:21;16.00;99.90
6964;DHT22;3522;50.856;7.278;2022-09-09T06:03:48;16.00;99.90
6964;DHT22;3522;50.856;7.278;2022-09-09T06:06:16;16.00;99.90
6964;DHT22;3522;50.856;7.278;2022-09-09T06:08:43;16.00;99.90
6964;DHT22;3522;50.856;7.278;2022-09-09T06:11:11;16.00;99.90
6964;DHT22;3522;50.856;7.278;2022-09-09T06:13:38;16.00;99.90
6964;DHT22;3522;50.856;7.278;2022-09-09T06:16:05;16.10;99.90
6964;DHT22;3522;50.856;7.278;2022-09-09T06:18:33;16.10;99.90
6964;DHT22;3522;50.856;7.278;2022-09-09T06:21:00;16.10;99.90
6964;DHT22;3522;50.856;7.278;2022-09-09T06:23:29;16.10;99.90
6964;DHT22;3522;50.856;7.278;2022-09-09T06:26:03;16.20;99.90
6964;DHT22;3522;50.856;7.278;2022-09-09T06:28:31;16.30;99.90
6964;DHT22;3522;50.856;7.278;2022-09-09T06:30:58;16.30;99.90
6964;DHT22;3522;50.856;7.278;2022-09-09T06:33:25;16.40;99.90
6964;DHT22;3522;50.856;7.278;2022-09-09T06:35:53;16.40;99.90
6964;DHT22;3522;50.856;7.278;2022-09-09T06:38:20;16.50;99.90
6964;DHT22;3522;50.856;7.278;2022-09-09T06:40:50;16.60;99.90
6964;DHT22;3522;50.856;7.278;2022-09-09T06:43:16;16.70;99.90
6964;DHT22;3522;50.856;7.278;2022-09-09T06:45:52;16.80;99.90
6964;DHT22;3522;50.856;7.278;2022-09-09T06:48:18;16.90;99.90
6964;DHT22;3522;50.856;7.278;2022-09-09T06:50:45;16.90;99.90
6964;DHT22;3522;50.856;7.278;2022-09-09T06:53:13;17.10;99.90
6964;DHT22;3522;50.856;7.278;2022-09-09T06:55:41;17.10;99.90
6964;DHT22;3522;50.856;7.278;2022-09-09T06:58:09;17.40;99.90
6964;DHT22;3522;50.856;7.278;2022-09-09T07:00:36;17.70;99.90
6964;DHT22;3522;50.856;7.278;2022-09-09T07:03:03;18.00;99.90
6964;DHT22;3522;50.856;7.278;2022-09-09T07:05:30;18.20;99.90
6964;DHT22;3522;50.856;7.278;2022-09-09T07:07:57;18.40;99.90
6964;DHT22;3522;50.856;7.278;2022-09-09T07:10:25;18.70;99.90
6964;DHT22;3522;50.856;7.278;2022-09-09T07:12:52;18.90;99.90
6964;DHT22;3522;50.856;7.278;2022-09-09T07:15:18;18.90;99.90
6964;DHT22;3522;50.856;7.278;2022-09-09T07:17:45;18.90;99.90
6964;DHT22;3522;50.856;7.278;2022-09-09T07:20:11;18.80;99.90
6964;DHT22;3522;50.856;7.278;2022-09-09T07:22:39;18.80;99.90
6964;DHT22;3522;50.856;7.278;2022-09-09T07:25:06;18.90;99.90
6964;DHT22;3522;50.856;7.278;2022-09-09T07:27:34;19.10;99.90
6964;DHT22;3522;50.856;7.278;2022-09-09T07:30:01;19.40;99.90
6964;DHT22;3522;50.856;7.278;2022-09-09T07:32:28;19.50;99.90
6964;DHT22;3522;50.856;7.278;2022-09-09T07:34:55;19.60;99.90
6964;DHT22;3522;50.856;7.278;2022-09-09T07:37:23;19.80;99.90
6964;DHT22;3522;50.856;7.278;2022-09-09T07:39:49;20.10;99.90
6964;DHT22;3522;50.856;7.278;2022-09-09T07:42:16;20.20;99.90
6964;DHT22;3522;50.856;7.278;2022-09-09T07:44:44;20.30;99.90
6964;DHT22;3522;50.856;7.278;2022-09-09T07:47:11;20.50;99.90
6964;DHT22;3522;50.856;7.278;2022-09-09T07:49:37;20.50;99.90
6964;DHT22;3522;50.856;7.278;2022-09-09T07:52:04;20.60;99.90
6964;DHT22;3522;50.856;7.278;2022-09-09T07:54:31;20.70;99.90
6964;DHT22;3522;50.856;7.278;2022-09-09T07:56:58;20.70;99.90
6964;DHT22;3522;50.856;7.278;2022-09-09T07:59:24;20.70;99.90
6964;DHT22;3522;50.856;7.278;2022-09-09T08:01:52;20.90;99.90
6964;DHT22;3522;50.856;7.278;2022-09-09T08:04:20;20.90;99.90
6964;DHT22;3522;50.856;7.278;2022-09-09T08:06:48;20.90;99.90
6964;DHT22;3522;50.856;7.278;2022-09-09T08:09:15;20.60;99.90
6964;DHT22;3522;50.856;7.278;2022-09-09T08:11:42;20.50;99.90
6964;DHT22;3522;50.856;7.278;2022-09-09T08:14:09;20.50;99.90
6964;DHT22;3522;50.856;7.278;2022-09-09T08:16:37;20.30;99.90
6964;DHT22;3522;50.856;7.278;2022-09-09T08:19:05;20.00;99.90
6964;DHT22;3522;50.856;7.278;2022-09-09T08:21:33;19.70;99.90
6964;DHT22;3522;50.856;7.278;2022-09-09T08:24:01;19.40;99.90
6964;DHT22;3522;50.856;7.278;2022-09-09T08:26:29;19.30;99.90
6964;DHT22;3522;50.856;7.278;2022-09-09T08:28:56;19.00;99.90
6964;DHT22;3522;50.856;7.278;2022-09-09T08:31:24;18.90;99.90
6964;DHT22;3522;50.856;7.278;2022-09-09T08:33:51;18.80;99.90
6964;DHT22;3522;50.856;7.278;2022-09-09T08:36:19;18.80;99.90
6964;DHT22;3522;50.856;7.278;2022-09-09T08:38:47;18.90;99.90
6964;DHT22;3522;50.856;7.278;2022-09-09T08:44:00;19.00;99.90
6964;DHT22;3522;50.856;7.278;2022-09-09T08:46:29;19.60;99.90
6964;DHT22;3522;50.856;7.278;2022-09-09T08:48:58;19.80;99.90
6964;DHT22;3522;50.856;7.278;2022-09-09T08:51:29;20.10;99.90
6964;DHT22;3522;50.856;7.278;2022-09-09T08:53:56;20.30;99.90
6964;DHT22;3522;50.856;7.278;2022-09-09T08:56:25;20.30;99.90
6964;DHT22;3522;50.856;7.278;2022-09-09T08:58:54;20.30;99.90
6964;DHT22;3522;50.856;7.278;2022-09-09T09:01:24;20.30;99.90
6964;DHT22;3522;50.856;7.278;2022-09-09T09:03:55;20.20;99.90
6964;DHT22;3522;50.856;7.278;2022-09-09T09:06:26;20.40;99.90
6964;DHT22;3522;50.856;7.278;2022-09-09T09:08:56;20.60;99.90
6964;DHT22;3522;50.856;7.278;2022-09-09T09:11:24;20.70;99.90
6964;DHT22;3522;50.856;7.278;2022-09-09T09:13:52;20.80;99.90
6964;DHT22;3522;50.856;7.278;2022-09-09T09:16:22;20.50;99.90
6964;DHT22;3522;50.856;7.278;2022-09-09T09:18:50;20.40;99.90
6964;DHT22;3522;50.856;7.278;2022-09-09T09:21:19;20.10;99.90
6964;DHT22;3522;50.856;7.278;2022-09-09T09:23:48;20.00;99.90
6964;DHT22;3522;50.856;7.278;2022-09-09T09:26:20;19.90;99.90
6964;DHT22;3522;50.856;7.278;2022-09-09T09:28:48;19.80;99.90
6964;DHT22;3522;50.856;7.278;2022-09-09T09:31:15;19.90;99.90
6964;DHT22;3522;50.856;7.278;2022-09-09T09:33:45;19.90;99.90
6964;DHT22;3522;50.856;7.278;2022-09-09T09:36:13;20.00;99.90
6964;DHT22;3522;50.856;7.278;2022-09-09T09:38:50;20.10;99.90
6964;DHT22;3522;50.856;7.278;2022-09-09T09:41:17;20.50;99.90
6964;DHT22;3522;50.856;7.278;2022-09-09T09:43:56;20.70;99.90
6964;DHT22;3522;50.856;7.278;2022-09-09T09:46:23;20.60;99.90
6964;DHT22;3522;50.856;7.278;2022-09-09T09:48:56;20.20;99.90
6964;DHT22;3522;50.856;7.278;2022-09-09T09:51:23;20.10;99.90
6964;DHT22;3522;50.856;7.278;2022-09-09T09:53:50;20.10;99.90
6964;DHT22;3522;50.856;7.278;2022-09-09T09:56:18;19.70;99.90
6964;DHT22;3522;50.856;7.278;2022-09-09T09:58:52;19.70;99.90
6964;DHT22;3522;50.856;7.278;2022-09-09T10:01:21;19.60;99.90
6964;DHT22;3522;50.856;7.278;2022-09-09T10:03:50;19.60;99.90
6964;DHT22;3522;50.856;7.278;2022-09-09T10:06:28;19.60;99.90
6964;DHT22;3522;50.856;7.278;2022-09-09T10:08:55;19.60;99.90
6964;DHT22;3522;50.856;7.278;2022-09-09T10:11:25;19.70;99.90
6964;DHT22;3522;50.856;7.278;2022-09-09T10:13:54;19.70;99.90
6964;DHT22;3522;50.856;7.278;2022-09-09T10:16:32;19.70;99.90
6964;DHT22;3522;50.856;7.278;2022-09-09T10:19:03;19.80;99.90
6964;DHT22;3522;50.856;7.278;2022-09-09T10:21:34;20.00;99.90
6964;DHT22;3522;50.856;7.278;2022-09-09T10:24:10;20.30;99.90
6964;DHT22;3522;50.856;7.278;2022-09-09T10:26:43;20.20;99.90
6964;DHT22;3522;50.856;7.278;2022-09-09T10:29:24;20.50;99.90
6964;DHT22;3522;50.856;7.278;2022-09-09T10:31:57;20.50;99.90
6964;DHT22;3522;50.856;7.278;2022-09-09T10:34:33;20.90;99.90
6964;DHT22;3522;50.856;7.278;2022-09-09T10:37:03;21.20;99.90
6964;DHT22;3522;50.856;7.278;2022-09-09T10:39:34;21.50;99.90
6964;DHT22;3522;50.856;7.278;2022-09-09T10:42:03;21.20;99.90
6964;DHT22;3522;50.856;7.278;2022-09-09T10:44:37;21.20;99.90
6964;DHT22;3522;50.856;7.278;2022-09-09T10:47:14;21.00;99.90
6964;DHT22;3522;50.856;7.278;2022-09-09T10:49:48;20.60;99.90
6964;DHT22;3522;50.856;7.278;2022-09-09T10:52:19;20.50;99.90
6964;DHT22;3522;50.856;7.278;2022-09-09T10:54:50;20.40;99.90
6964;DHT22;3522;50.856;7.278;2022-09-09T10:57:21;20.40;99.90
6964;DHT22;3522;50.856;7.278;2022-09-09T10:59:52;20.20;99.90
6964;DHT22;3522;50.856;7.278;2022-09-09T11:02:25;20.10;99.90
6964;DHT22;3522;50.856;7.278;2022-09-09T11:04:53;19.60;99.90
6964;DHT22;3522;50.856;7.278;2022-09-09T11:07:24;19.50;99.90
6964;DHT22;3522;50.856;7.278;2022-09-09T11:09:52;19.50;99.90
6964;DHT22;3522;50.856;7.278;2022-09-09T11:12:21;19.50;99.90
6964;DHT22;3522;50.856;7.278;2022-09-09T11:14:50;19.60;99.90
6964;DHT22;3522;50.856;7.278;2022-09-09T11:17:18;19.60;99.90
6964;DHT22;3522;50.856;7.278;2022-09-09T11:19:47;19.90;99.90
6964;DHT22;3522;50.856;7.278;2022-09-09T11:22:15;20.20;99.90
6964;DHT22;3522;50.856;7.278;2022-09-09T11:24:44;20.80;99.90
6964;DHT22;3522;50.856;7.278;2022-09-09T11:27:13;21.10;99.90
6964;DHT22;3522;50.856;7.278;2022-09-09T11:29:48;21.00;99.90
6964;DHT22;3522;50.856;7.278;2022-09-09T11:35:02;21.40;99.90
6964;DHT22;3522;50.856;7.278;2022-09-09T11:37:38;21.50;99.90
6964;DHT22;3522;50.856;7.278;2022-09-09T11:40:17;21.60;99.90
6964;DHT22;3522;50.856;7.278;2022-09-09T11:42:45;21.70;99.90
6964;DHT22;3522;50.856;7.278;2022-09-09T11:45:19;21.60;99.90
6964;DHT22;3522;50.856;7.278;2022-09-09T11:47:51;21.60;99.90
6964;DHT22;3522;50.856;7.278;2022-09-09T11:50:28;21.40;99.90
6964;DHT22;3522;50.856;7.278;2022-09-09T11:53:03;21.30;99.90
6964;DHT22;3522;50.856;7.278;2022-09-09T11:55:30;21.20;99.90
6964;DHT22;3522;50.856;7.278;2022-09-09T11:57:58;21.00;99.90
6964;DHT22;3522;50.856;7.278;2022-09-09T12:00:33;20.90;99.90
6964;DHT22;3522;50.856;7.278;2022-09-09T12:03:00;20.90;99.90
6964;DHT22;3522;50.856;7.278;2022-09-09T12:05:36;20.90;99.90
6964;DHT22;3522;50.856;7.278;2022-09-09T12:08:04;20.80;99.90
6964;DHT22;3522;50.856;7.278;2022-09-09T12:10:32;20.60;99.90
6964;DHT22;3522;50.856;7.278;2022-09-09T12:13:07;20.50;99.90
6964;DHT22;3522;50.856;7.278;2022-09-09T12:15:34;20.60;99.90
6964;DHT22;3522;50.856;7.278;2022-09-09T12:18:01;20.70;99.90
6964;DHT22;3522;50.856;7.278;2022-09-09T12:20:30;20.70;99.90
6964;DHT22;3522;50.856;7.278;2022-09-09T12:25:46;20.50;99.90
6964;DHT22;3522;50.856;7.278;2022-09-09T12:28:15;20.50;99.90
6964;DHT22;3522;50.856;7.278;2022-09-09T12:30:46;20.70;99.90
6964;DHT22;3522;50.856;7.278;2022-09-09T12:33:16;20.70;99.90
6964;DHT22;3522;50.856;7.278;2022-09-09T12:35:44;20.80;99.90
6964;DHT22;3522;50.856;7.278;2022-09-09T12:38:13;20.80;99.90
6964;DHT22;3522;50.856;7.278;2022-09-09T12:40:41;20.60;99.90
6964;DHT22;3522;50.856;7.278;2022-09-09T12:43:20;20.70;99.90
6964;DHT22;3522;50.856;7.278;2022-09-09T12:45:47;20.80;99.90
6964;DHT22;3522;50.856;7.278;2022-09-09T12:48:15;20.80;99.90
6964;DHT22;3522;50.856;7.278;2022-09-09T12:50:44;20.70;99.90
6964;DHT22;3522;50.856;7.278;2022-09-09T12:53:12;20.60;99.90
6964;DHT22;3522;50.856;7.278;2022-09-09T12:55:48;20.60;99.90
6964;DHT22;3522;50.856;7.278;2022-09-09T12:58:16;20.40;99.90
6964;DHT22;3522;50.856;7.278;2022-09-09T13:00:49;20.30;99.90
6964;DHT22;3522;50.856;7.278;2022-09-09T13:03:18;20.30;99.90
6964;DHT22;3522;50.856;7.278;2022-09-09T13:05:45;20.30;99.90
6964;DHT22;3522;50.856;7.278;2022-09-09T13:08:13;20.50;99.90
6964;DHT22;3522;50.856;7.278;2022-09-09T13:10:40;20.80;99.90
6964;DHT22;3522;50.856;7.278;2022-09-09T13:13:12;21.00;99.90
6964;DHT22;3522;50.856;7.278;2022-09-09T13:15:40;21.00;99.90
6964;DHT22;3522;50.856;7.278;2022-09-09T13:18:15;21.00;99.90
6964;DHT22;3522;50.856;7.278;2022-09-09T13:20:45;21.00;99.90
6964;DHT22;3522;50.856;7.278;2022-09-09T13:23:12;20.80;99.90
6964;DHT22;3522;50.856;7.278;2022-09-09T13:25:39;20.70;99.90
6964;DHT22;3522;50.856;7.278;2022-09-09T13:28:18;20.60;99.90
6964;DHT22;3522;50.856;7.278;2022-09-09T13:30:54;20.40;99.90
6964;DHT22;3522;50.856;7.278;2022-09-09T13:33:28;20.20;99.90
6964;DHT22;3522;50.856;7.278;2022-09-09T13:35:56;20.10;99.90
6964;DHT22;3522;50.856;7.278;2022-09-09T13:38:27;20.00;99.90
6964;DHT22;3522;50.856;7.278;2022-09-09T13:40:55;19.90;99.90
6964;DHT22;3522;50.856;7.278;2022-09-09T13:43:23;19.90;99.90
6964;DHT22;3522;50.856;7.278;2022-09-09T13:45:54;19.90;99.90
6964;DHT22;3522;50.856;7.278;2022-09-09T13:48:21;20.00;99.90
6964;DHT22;3522;50.856;7.278;2022-09-09T13:50:54;20.00;99.90
6964;DHT22;3522;50.856;7.278;2022-09-09T13:53:21;19.90;99.90
6964;DHT22;3522;50.856;7.278;2022-09-09T13:55:47;19.80;99.90
6964;DHT22;3522;50.856;7.278;2022-09-09T13:58:15;19.70;99.90
6964;DHT22;3522;50.856;7.278;2022-09-09T14:00:42;19.90;99.90
6964;DHT22;3522;50.856;7.278;2022-09-09T14:03:10;20.00;99.90
6964;DHT22;3522;50.856;7.278;2022-09-09T14:05:36;20.00;99.90
6964;DHT22;3522;50.856;7.278;2022-09-09T14:08:04;20.10;99.90
6964;DHT22;3522;50.856;7.278;2022-09-09T14:10:31;20.00;99.90
6964;DHT22;3522;50.856;7.278;2022-09-09T14:13:01;20.00;99.90
6964;DHT22;3522;50.856;7.278;2022-09-09T14:15:27;20.00;99.90
6964;DHT22;3522;50.856;7.278;2022-09-09T14:17:54;20.00;99.90
6964;DHT22;3522;50.856;7.278;2022-09-09T14:20:20;20.00;99.90
6964;DHT22;3522;50.856;7.278;2022-09-09T14:22:47;20.00;99.90
6964;DHT22;3522;50.856;7.278;2022-09-09T14:25:15;20.10;99.90
6964;DHT22;3522;50.856;7.278;2022-09-09T14:27:42;20.10;99.90
6964;DHT22;3522;50.856;7.278;2022-09-09T14:30:11;20.20;99.90
6964;DHT22;3522;50.856;7.278;2022-09-09T14:32:38;20.30;99.90
6964;DHT22;3522;50.856;7.278;2022-09-09T14:35:04;20.40;99.90
6964;DHT22;3522;50.856;7.278;2022-09-09T14:37:31;20.40;99.90
6964;DHT22;3522;50.856;7.278;2022-09-09T14:39:57;20.30;99.90
6964;DHT22;3522;50.856;7.278;2022-09-09T14:42:25;20.20;99.90
6964;DHT22;3522;50.856;7.278;2022-09-09T14:44:52;20.20;99.90
6964;DHT22;3522;50.856;7.278;2022-09-09T14:47:18;20.10;99.90
6964;DHT22;3522;50.856;7.278;2022-09-09T14:49:45;20.00;99.90
6964;DHT22;3522;50.856;7.278;2022-09-09T14:52:15;19.90;99.90
6964;DHT22;3522;50.856;7.278;2022-09-09T14:54:41;19.90;99.90
6964;DHT22;3522;50.856;7.278;2022-09-09T14:57:08;19.90;99.90
6964;DHT22;3522;50.856;7.278;2022-09-09T14:59:36;19.90;99.90
6964;DHT22;3522;50.856;7.278;2022-09-09T15:02:02;19.80;99.90
6964;DHT22;3522;50.856;7.278;2022-09-09T15:04:29;19.70;99.90
6964;DHT22;3522;50.856;7.278;2022-09-09T15:06:56;19.70;99.90
6964;DHT22;3522;50.856;7.278;2022-09-09T15:09:24;19.80;99.90
6964;DHT22;3522;50.856;7.278;2022-09-09T15:11:50;19.80;99.90
6964;DHT22;3522;50.856;7.278;2022-09-09T15:14:17;19.80;99.90
6964;DHT22;3522;50.856;7.278;2022-09-09T15:16:45;19.70;99.90
6964;DHT22;3522;50.856;7.278;2022-09-09T15:19:11;19.60;99.90
6964;DHT22;3522;50.856;7.278;2022-09-09T15:21:38;19.50;99.90
6964;DHT22;3522;50.856;7.278;2022-09-09T15:24:04;19.40;99.90
6964;DHT22;3522;50.856;7.278;2022-09-09T15:26:32;19.30;99.90
6964;DHT22;3522;50.856;7.278;2022-09-09T15:28:59;19.30;99.90
6964;DHT22;3522;50.856;7.278;2022-09-09T15:31:27;19.30;99.90
6964;DHT22;3522;50.856;7.278;2022-09-09T15:33:56;19.30;99.90
6964;DHT22;3522;50.856;7.278;2022-09-09T15:36:28;19.20;99.90
6964;DHT22;3522;50.856;7.278;2022-09-09T15:38:55;19.10;99.90
6964;DHT22;3522;50.856;7.278;2022-09-09T15:41:22;19.10;99.90
6964;DHT22;3522;50.856;7.278;2022-09-09T15:43:49;19.00;99.90
6964;DHT22;3522;50.856;7.278;2022-09-09T15:46:23;18.80;99.90
6964;DHT22;3522;50.856;7.278;2022-09-09T15:48:51;18.80;99.90
6964;DHT22;3522;50.856;7.278;2022-09-09T15:51:19;18.50;99.90
6964;DHT22;3522;50.856;7.278;2022-09-09T15:53:47;18.20;99.90
6964;DHT22;3522;50.856;7.278;2022-09-09T15:56:13;17.70;99.90
6964;DHT22;3522;50.856;7.278;2022-09-09T15:58:40;17.20;99.90
6964;DHT22;3522;50.856;7.278;2022-09-09T16:01:09;16.70;99.90
6964;DHT22;3522;50.856;7.278;2022-09-09T16:03:36;16.40;99.90
6964;DHT22;3522;50.856;7.278;2022-09-09T16:06:04;16.30;99.90
6964;DHT22;3522;50.856;7.278;2022-09-09T16:08:32;16.30;99.90
6964;DHT22;3522;50.856;7.278;2022-09-09T16:11:04;16.30;99.90
6964;DHT22;3522;50.856;7.278;2022-09-09T16:13:32;16.40;99.90
6964;DHT22;3522;50.856;7.278;2022-09-09T16:15:59;16.40;99.90
6964;DHT22;3522;50.856;7.278;2022-09-09T16:18:25;16.50;99.90
6964;DHT22;3522;50.856;7.278;2022-09-09T16:20:53;16.60;99.90